createdAt,value
2022-08-14T00:01:31.605Z,46.37
2022-08-14T00:03:58.866Z,46.30
2022-08-14T00:06:28.869Z,47.02
2022-08-14T00:08:58.959Z,46.88
2022-08-14T00:11:31.288Z,46.61
2022-08-14T00:14:02.103Z,47.33
2022-08-14T00:16:41.402Z,46.87
2022-08-14T00:19:19.725Z,46.88
2022-08-14T00:21:50.997Z,47.18
2022-08-14T00:24:23.227Z,48.16
2022-08-14T00:26:57.151Z,47.74
2022-08-14T00:29:25.552Z,47.70
2022-08-14T00:31:56.619Z,48.01
2022-08-14T00:34:35.398Z,48.12
2022-08-14T00:37:05.542Z,48.22
2022-08-14T00:39:32.871Z,48.66
2022-08-14T00:41:59.742Z,48.11
2022-08-14T00:44:32.465Z,49.05
2022-08-14T00:47:10.832Z,48.99
2022-08-14T00:49:42.561Z,48.67
2022-08-14T00:52:14.108Z,49.64
2022-08-14T00:54:45.795Z,49.18
2022-08-14T00:57:12.652Z,49.57
2022-08-14T00:59:39.548Z,49.41
2022-08-14T01:02:09.221Z,48.84
2022-08-14T01:04:54.300Z,48.80
2022-08-14T01:07:23.925Z,49.19
2022-08-14T01:09:58.763Z,49.29
2022-08-14T01:12:40.763Z,48.97
2022-08-14T01:15:09.700Z,48.71
2022-08-14T01:17:54.876Z,48.93
2022-08-14T01:20:40.846Z,49.08
2022-08-14T01:23:18.515Z,49.42
2022-08-14T01:25:51.530Z,49.87
2022-08-14T01:28:46.959Z,50.25
2022-08-14T01:31:15.822Z,50.53
2022-08-14T01:35:15.944Z,49.56
2022-08-14T01:36:38.338Z,49.11
2022-08-14T01:39:12.902Z,50.00
2022-08-14T01:41:41.936Z,50.11
2022-08-14T01:44:32.992Z,49.38
2022-08-14T01:47:12.162Z,48.83
2022-08-14T01:49:46.088Z,48.69
2022-08-14T01:52:34.480Z,49.03
2022-08-14T01:55:14.469Z,49.34
2022-08-14T01:57:49.739Z,48.90
2022-08-14T02:00:29.756Z,49.30
2022-08-14T02:03:02.899Z,49.93
2022-08-14T02:05:32.989Z,49.84
2022-08-14T02:08:09.609Z,50.26
2022-08-14T02:10:46.529Z,50.52
2022-08-14T02:13:17.499Z,49.83
2022-08-14T02:15:45.385Z,50.09
2022-08-14T02:18:16.449Z,49.94
2022-08-14T02:20:45.130Z,50.15
2022-08-14T02:23:14.119Z,50.14
2022-08-14T02:25:42.522Z,49.99
2022-08-14T02:28:25.300Z,50.45
2022-08-14T02:30:56.597Z,50.40
2022-08-14T02:33:23.908Z,50.84
2022-08-14T02:35:53.486Z,50.47
2022-08-14T02:38:29.645Z,50.29
2022-08-14T02:41:00.768Z,50.29
2022-08-14T02:43:37.218Z,50.19
2022-08-14T02:46:20.153Z,50.31
2022-08-14T02:49:01.893Z,50.26
2022-08-14T02:51:33.935Z,50.67
2022-08-14T02:54:01.697Z,50.52
2022-08-14T02:57:13.922Z,50.68
2022-08-14T02:59:17.967Z,50.24
2022-08-14T03:01:50.842Z,51.23
2022-08-14T03:04:22.315Z,51.70
2022-08-14T03:06:57.797Z,51.61
2022-08-14T03:09:41.873Z,51.93
2022-08-14T03:12:30.842Z,51.99
2022-08-14T03:14:59.622Z,52.64
2022-08-14T03:17:26.871Z,52.46
2022-08-14T03:19:58.851Z,53.41
2022-08-14T03:22:29.975Z,53.43
2022-08-14T03:24:57.075Z,53.26
2022-08-14T03:27:26.622Z,52.75
2022-08-14T03:30:05.267Z,53.55
2022-08-14T03:32:33.402Z,52.81
2022-08-14T03:35:00.258Z,53.25
2022-08-14T03:37:51.891Z,53.42
2022-08-14T03:40:18.589Z,53.42
2022-08-14T03:42:45.491Z,53.49
2022-08-14T03:45:26.479Z,53.58
2022-08-14T03:48:02.169Z,53.04
2022-08-14T03:50:31.414Z,53.22
2022-08-14T03:53:03.096Z,54.18
2022-08-14T03:55:30.747Z,54.15
2022-08-14T03:57:58.299Z,54.59
2022-08-14T04:00:44.313Z,54.87
2022-08-14T04:03:19.647Z,54.97
2022-08-14T04:05:51.087Z,55.68
2022-08-14T04:08:29.729Z,54.88
2022-08-14T04:10:59.482Z,55.84
2022-08-14T04:13:31.654Z,54.99
2022-08-14T04:16:12.464Z,55.28
2022-08-14T04:18:42.534Z,55.70
2022-08-14T04:21:10.344Z,55.26
2022-08-14T04:23:37.593Z,54.84
2022-08-14T04:26:14.978Z,55.63
2022-08-14T04:29:09.078Z,55.71
2022-08-14T04:32:57.335Z,55.35
2022-08-14T04:34:28.279Z,55.79
2022-08-14T04:37:22.354Z,55.61
2022-08-14T04:40:12.934Z,55.05
2022-08-14T04:43:00.373Z,55.41
2022-08-14T04:45:32.861Z,55.21
2022-08-14T04:48:39.504Z,54.20
2022-08-14T04:51:03.527Z,54.01
2022-08-14T04:53:34.936Z,54.83
2022-08-14T04:56:05.788Z,55.04
2022-08-14T04:58:37.595Z,54.52
2022-08-14T05:01:12.727Z,53.72
2022-08-14T05:03:44.775Z,53.29
2022-08-14T05:06:37.110Z,53.52
2022-08-14T05:09:00.033Z,53.53
2022-08-14T05:11:28.082Z,52.77
2022-08-14T05:14:16.971Z,52.56
2022-08-14T05:16:44.027Z,52.44
2022-08-14T05:19:24.814Z,52.83
2022-08-14T05:22:17.835Z,52.04
2022-08-14T05:24:50.634Z,50.53
2022-08-14T05:27:22.847Z,48.70
2022-08-14T05:29:56.947Z,46.24
2022-08-14T05:32:27.440Z,44.30
2022-08-14T05:34:59.061Z,43.19
2022-08-14T05:37:28.169Z,42.35
2022-08-14T05:39:55.219Z,41.28
2022-08-14T05:42:28.967Z,40.51
2022-08-14T05:44:56.542Z,39.16
2022-08-14T05:47:24.392Z,38.20
2022-08-14T05:49:58.550Z,37.23
2022-08-14T05:52:26.372Z,36.66
2022-08-14T05:55:11.323Z,36.40
2022-08-14T05:57:50.900Z,36.55
2022-08-14T06:00:24.968Z,37.38
2022-08-14T06:02:56.598Z,36.54
2022-08-14T06:05:24.285Z,35.54
2022-08-14T06:07:55.871Z,35.68
2022-08-14T06:10:24.126Z,35.46
2022-08-14T06:12:56.831Z,34.47
2022-08-14T06:15:29.424Z,34.02
2022-08-14T06:17:59.057Z,34.72
2022-08-14T06:20:28.108Z,34.16
2022-08-14T06:22:55.408Z,33.97
2022-08-14T06:25:23.388Z,32.87
2022-08-14T06:27:52.048Z,33.28
2022-08-14T06:30:41.786Z,34.82
2022-08-14T06:33:11.933Z,35.77
2022-08-14T06:35:44.074Z,37.36
2022-08-14T06:38:18.528Z,38.82
2022-08-14T06:40:46.063Z,39.35
2022-08-14T06:43:15.514Z,40.43
2022-08-14T06:45:50.317Z,41.64
2022-08-14T06:48:23.842Z,42.95
2022-08-14T06:50:54.910Z,43.64
2022-08-14T06:53:22.473Z,43.57
2022-08-14T06:56:00.505Z,43.28
2022-08-14T06:58:29.423Z,43.64
2022-08-14T07:01:19.267Z,43.76
2022-08-14T07:04:12.881Z,43.35
2022-08-14T07:06:51.808Z,43.79
2022-08-14T07:09:23.204Z,43.75
2022-08-14T07:11:51.549Z,43.37
2022-08-14T07:14:18.485Z,44.19
2022-08-14T07:16:45.047Z,43.59
2022-08-14T07:19:12.266Z,43.36
2022-08-14T07:21:39.479Z,43.14
2022-08-14T07:24:06.473Z,42.69
2022-08-14T07:26:36.608Z,42.56
2022-08-14T07:29:05.840Z,41.99
2022-08-14T07:31:33.475Z,41.71
2022-08-14T07:34:00.100Z,41.11
2022-08-14T07:36:31.330Z,39.11
2022-08-14T07:39:00.330Z,37.29
2022-08-14T07:41:33.959Z,36.11
2022-08-14T07:44:29.669Z,34.14
2022-08-14T07:46:50.078Z,32.83
2022-08-14T07:49:18.172Z,32.13
2022-08-14T07:51:45.875Z,31.74
2022-08-14T07:54:23.501Z,31.31
2022-08-14T07:57:11.764Z,31.32
2022-08-14T07:59:42.269Z,30.70
2022-08-14T08:02:19.498Z,30.36
2022-08-14T08:04:50.650Z,30.24
2022-08-14T08:07:21.684Z,30.69
2022-08-14T08:09:53.226Z,30.22
2022-08-14T08:12:21.706Z,29.82
2022-08-14T08:14:56.858Z,30.55
2022-08-14T08:17:34.686Z,31.22
2022-08-14T08:20:11.632Z,33.60
2022-08-14T08:22:40.765Z,34.11
2022-08-14T08:25:13.454Z,36.41
2022-08-14T08:27:44.661Z,37.02
2022-08-14T08:30:12.305Z,37.33
2022-08-14T08:32:43.647Z,38.76
2022-08-14T08:35:17.542Z,38.12
2022-08-14T08:37:45.031Z,39.38
2022-08-14T08:40:31.023Z,38.98
2022-08-14T08:42:59.189Z,39.27
2022-08-14T08:45:27.811Z,40.26
2022-08-14T08:47:55.144Z,40.29
2022-08-14T08:50:31.764Z,39.50
2022-08-14T08:53:04.282Z,39.90
2022-08-14T08:55:43.800Z,38.98
2022-08-14T08:58:20.230Z,39.46
2022-08-14T09:00:58.568Z,39.44
2022-08-14T09:03:27.929Z,39.30
2022-08-14T09:06:01.450Z,38.21
2022-08-14T09:08:34.003Z,37.48
2022-08-14T09:11:19.196Z,37.46
2022-08-14T09:13:53.103Z,36.84
2022-08-14T09:16:25.966Z,37.21
2022-08-14T09:18:54.887Z,37.00
2022-08-14T09:21:24.175Z,37.32
2022-08-14T09:24:29.478Z,36.12
2022-08-14T09:26:44.107Z,35.66
2022-08-14T09:29:16.199Z,36.00
2022-08-14T09:31:53.018Z,37.46
2022-08-14T09:34:27.928Z,37.02
2022-08-14T09:37:09.980Z,36.01
2022-08-14T09:40:20.570Z,37.29
2022-08-14T09:43:12.937Z,36.87
2022-08-14T09:45:53.232Z,38.33
2022-08-14T09:48:30.165Z,38.02
2022-08-14T09:54:19.096Z,37.97
2022-08-14T09:56:56.776Z,37.32
2022-08-14T09:59:28.361Z,38.69
2022-08-14T10:02:00.027Z,37.82
2022-08-14T10:04:36.484Z,38.99
2022-08-14T10:07:08.162Z,38.73
2022-08-14T10:09:57.589Z,39.01
2022-08-14T10:12:48.502Z,39.93
2022-08-14T10:15:21.221Z,38.87
2022-08-14T10:17:49.163Z,38.17
2022-08-14T10:20:40.648Z,38.28
2022-08-14T10:23:17.992Z,37.18
2022-08-14T10:25:48.578Z,37.50
2022-08-14T10:28:39.434Z,37.67
2022-08-14T10:31:03.410Z,36.52
2022-08-14T10:33:32.805Z,36.99
2022-08-14T10:36:00.624Z,37.70
2022-08-14T10:38:32.730Z,38.03
2022-08-14T10:41:18.011Z,37.00
2022-08-14T10:44:04.589Z,37.60
2022-08-14T10:47:36.587Z,36.87
2022-08-14T10:49:28.809Z,36.69
2022-08-14T10:52:02.505Z,37.09
2022-08-14T10:54:42.269Z,37.63
2022-08-14T10:57:20.014Z,37.91
2022-08-14T10:59:58.676Z,37.15
2022-08-14T11:02:53.925Z,37.31
2022-08-14T11:05:23.522Z,38.04
2022-08-14T11:07:57.084Z,38.00
2022-08-14T11:10:48.264Z,38.30
2022-08-14T11:13:21.357Z,37.94
2022-08-14T11:15:51.589Z,37.75
2022-08-14T11:18:20.550Z,36.77
2022-08-14T11:21:00.581Z,37.86
2022-08-14T11:23:38.113Z,37.84
2022-08-14T11:26:08.114Z,37.44
2022-08-14T11:28:47.239Z,37.80
2022-08-14T11:31:23.987Z,37.46
2022-08-14T11:33:57.569Z,37.73
2022-08-14T11:36:57.093Z,37.78
2022-08-14T11:39:34.890Z,37.87
2022-08-14T11:42:56.270Z,38.43
2022-08-14T11:45:00.251Z,38.60
2022-08-14T11:47:34.775Z,38.28
2022-08-14T11:50:37.119Z,38.37
2022-08-14T11:53:07.088Z,38.03
2022-08-14T11:55:38.419Z,37.70
2022-08-14T11:58:09.361Z,37.43
2022-08-14T12:00:52.660Z,37.77
2022-08-14T12:03:37.582Z,36.96
2022-08-14T12:06:29.125Z,36.34
2022-08-14T12:09:00.339Z,36.61
2022-08-14T12:11:43.237Z,36.95
2022-08-14T12:14:13.340Z,36.22
2022-08-14T12:17:12.069Z,36.52
2022-08-14T12:19:58.853Z,36.32
2022-08-14T12:22:44.033Z,36.09
2022-08-14T12:25:19.449Z,36.06
2022-08-14T12:27:53.374Z,34.52
2022-08-14T12:30:40.063Z,34.73
2022-08-14T12:33:25.505Z,35.18
2022-08-14T12:35:58.435Z,34.50
2022-08-14T12:38:38.066Z,34.25
2022-08-14T12:41:20.250Z,35.21
2022-08-14T12:43:51.591Z,34.93
2022-08-14T12:46:27.110Z,34.49
2022-08-14T12:48:55.902Z,35.24
2022-08-14T12:51:28.308Z,34.89
2022-08-14T12:53:59.458Z,35.13
2022-08-14T12:56:33.014Z,34.89
2022-08-14T12:59:00.314Z,35.61
2022-08-14T13:01:31.265Z,35.23
2022-08-14T13:04:15.629Z,36.51
2022-08-14T13:06:50.651Z,36.64
2022-08-14T13:09:19.166Z,36.96
2022-08-14T13:11:58.907Z,37.08
2022-08-14T13:14:40.853Z,37.08
2022-08-14T13:17:10.813Z,37.56
2022-08-14T13:19:40.822Z,36.99
2022-08-14T13:22:09.665Z,37.05
2022-08-14T13:24:39.423Z,37.11
2022-08-14T13:27:09.994Z,37.05
2022-08-14T13:29:46.812Z,37.08
2022-08-14T13:32:15.269Z,36.69
2022-08-14T13:34:43.758Z,36.82
2022-08-14T13:37:14.519Z,37.12
2022-08-14T13:39:57.099Z,36.54
2022-08-14T13:42:30.927Z,35.86
2022-08-14T13:45:02.253Z,35.92
2022-08-14T13:47:32.946Z,35.82
2022-08-14T13:50:02.775Z,36.74
2022-08-14T13:52:59.116Z,36.03
2022-08-14T13:55:28.885Z,35.87
2022-08-14T13:58:03.351Z,36.02
2022-08-14T14:00:52.957Z,36.92
2022-08-14T14:03:22.814Z,35.92
2022-08-14T14:05:54.367Z,37.13
2022-08-14T14:08:43.249Z,37.02
2022-08-14T14:11:13.253Z,36.77
2022-08-14T14:13:45.232Z,36.35
2022-08-14T14:16:15.381Z,36.44
2022-08-14T14:19:06.085Z,36.84
2022-08-14T14:21:36.134Z,36.36
2022-08-14T14:24:04.982Z,35.71
2022-08-14T14:26:33.330Z,35.98
2022-08-14T14:29:06.210Z,36.33
2022-08-14T14:31:36.474Z,36.25
2022-08-14T14:34:20.119Z,35.60
2022-08-14T14:36:55.451Z,36.12
2022-08-14T14:39:27.507Z,36.48
2022-08-14T14:41:59.602Z,36.55
2022-08-14T14:44:40.601Z,37.37
2022-08-14T14:47:13.801Z,36.75
2022-08-14T14:49:54.890Z,36.94
2022-08-14T14:52:26.866Z,36.14
2022-08-14T14:54:58.986Z,36.90
2022-08-14T14:57:35.351Z,36.87
2022-08-14T15:00:08.852Z,36.68
2022-08-14T15:02:43.290Z,36.32
2022-08-14T15:05:12.576Z,36.90
2022-08-14T15:07:40.185Z,37.10
2022-08-14T15:10:26.823Z,37.06
2022-08-14T15:12:59.995Z,36.98
2022-08-14T15:15:27.314Z,37.21
2022-08-14T15:17:54.749Z,37.17
2022-08-14T15:20:30.406Z,37.13
2022-08-14T15:23:00.933Z,36.71
2022-08-14T15:25:35.742Z,36.52
2022-08-14T15:28:02.427Z,37.21
2022-08-14T15:30:32.833Z,37.33
2022-08-14T15:32:59.799Z,37.04
2022-08-14T15:35:28.069Z,37.27
2022-08-14T15:38:10.162Z,36.62
2022-08-14T15:40:41.061Z,37.44
2022-08-14T15:43:12.974Z,37.55
2022-08-14T15:45:41.398Z,37.68
2022-08-14T15:48:08.268Z,37.77
2022-08-14T15:50:44.826Z,37.09
2022-08-14T15:53:15.785Z,36.97
2022-08-14T15:55:43.962Z,37.37
2022-08-14T15:58:14.319Z,36.92
2022-08-14T16:01:00.445Z,36.60
2022-08-14T16:03:37.239Z,37.63
2022-08-14T16:06:10.858Z,37.81
2022-08-14T16:08:45.042Z,38.29
2022-08-14T16:11:14.129Z,38.63
2022-08-14T16:13:43.270Z,38.91
2022-08-14T16:16:48.994Z,38.92
2022-08-14T16:19:19.145Z,38.59
2022-08-14T16:22:02.560Z,38.93
2022-08-14T16:25:01.983Z,38.44
2022-08-14T16:27:39.437Z,37.88
2022-08-14T16:30:20.478Z,37.65
2022-08-14T16:32:57.239Z,38.23
2022-08-14T16:35:42.489Z,38.56
2022-08-14T16:38:29.366Z,38.58
2022-08-14T16:41:21.928Z,38.67
2022-08-14T16:43:53.057Z,38.80
2022-08-14T16:46:22.337Z,38.87
2022-08-14T16:48:56.975Z,38.43
2022-08-14T16:51:26.047Z,37.63
2022-08-14T16:53:56.461Z,38.27
2022-08-14T16:56:28.123Z,37.89
2022-08-14T16:59:12.485Z,37.65
2022-08-14T17:01:42.353Z,37.65
2022-08-14T17:04:24.770Z,37.73
2022-08-14T17:06:55.240Z,37.79
2022-08-14T17:09:45.483Z,37.88
2022-08-14T17:12:29.107Z,37.45
2022-08-14T17:15:15.055Z,38.14
2022-08-14T17:17:54.474Z,38.10
2022-08-14T17:20:53.809Z,38.03
2022-08-14T17:23:12.194Z,38.49
2022-08-14T17:25:40.215Z,38.24
2022-08-14T17:28:50.038Z,38.35
2022-08-14T17:31:10.354Z,38.33
2022-08-14T17:33:44.824Z,38.16
2022-08-14T17:36:24.001Z,38.23
2022-08-14T17:39:11.935Z,38.24
2022-08-14T17:41:43.587Z,38.32
2022-08-14T17:44:22.023Z,38.65
2022-08-14T17:47:03.471Z,38.71
2022-08-14T17:49:32.893Z,38.93
2022-08-14T17:52:07.836Z,38.51
2022-08-14T17:54:45.165Z,38.31
2022-08-14T17:57:17.549Z,38.34
2022-08-14T17:59:48.106Z,38.00
2022-08-14T18:02:18.903Z,38.59
2022-08-14T18:04:47.162Z,38.27
2022-08-14T18:08:30.927Z,38.05
2022-08-14T18:10:53.149Z,38.54
2022-08-14T18:12:56.853Z,38.71
2022-08-14T18:15:35.518Z,38.38
2022-08-14T18:18:06.947Z,38.66
2022-08-14T18:21:40.674Z,38.67
2022-08-14T18:23:24.603Z,38.62
2022-08-14T18:25:53.556Z,38.65
2022-08-14T18:28:50.972Z,38.78
2022-08-14T18:31:21.218Z,39.18
2022-08-14T18:34:06.228Z,39.13
2022-08-14T18:36:56.728Z,39.20
2022-08-14T18:39:27.160Z,38.74
2022-08-14T18:42:23.539Z,39.11
2022-08-14T18:44:51.263Z,39.31
2022-08-14T18:47:22.303Z,39.23
2022-08-14T18:49:52.655Z,39.56
2022-08-14T18:52:22.972Z,39.43
2022-08-14T18:54:59.130Z,39.77
2022-08-14T18:57:40.295Z,39.54
2022-08-14T19:00:32.224Z,39.91
2022-08-14T19:03:05.131Z,40.29
2022-08-14T19:05:47.546Z,40.64
2022-08-14T19:08:17.887Z,40.35
2022-08-14T19:10:49.294Z,40.59
2022-08-14T19:13:48.285Z,41.05
2022-08-14T19:16:26.070Z,41.26
2022-08-14T19:19:00.462Z,41.55
2022-08-14T19:21:31.907Z,41.64
2022-08-14T19:24:04.498Z,41.51
2022-08-14T19:27:11.985Z,41.60
2022-08-14T19:29:39.802Z,41.56
2022-08-14T19:32:39.444Z,42.14
2022-08-14T19:35:48.736Z,41.87
2022-08-14T19:38:54.086Z,42.39
2022-08-14T19:41:25.060Z,43.05
2022-08-14T19:44:31.762Z,42.48
2022-08-14T19:47:04.828Z,43.46
2022-08-14T19:50:08.424Z,42.96
2022-08-14T19:52:37.102Z,43.10
2022-08-14T19:55:16.653Z,44.07
2022-08-14T19:57:43.394Z,43.59
2022-08-14T20:00:29.003Z,43.65
2022-08-14T20:03:01.970Z,43.50
2022-08-14T20:05:46.134Z,44.42
2022-08-14T20:11:02.482Z,43.71
2022-08-14T20:11:20.873Z,43.62
2022-08-14T20:14:00.450Z,43.48
2022-08-14T20:16:36.594Z,44.00
2022-08-14T20:19:22.524Z,43.92
2022-08-14T20:21:58.296Z,44.13
2022-08-14T20:24:41.132Z,44.60
2022-08-14T20:27:38.785Z,44.87
2022-08-14T20:30:29.707Z,44.46
2022-08-14T20:33:02.882Z,43.97
2022-08-14T20:35:36.914Z,43.90
2022-08-14T20:38:29.210Z,43.93
2022-08-14T20:41:12.485Z,44.05
2022-08-14T20:43:59.752Z,43.86
2022-08-14T20:46:38.695Z,44.05
2022-08-14T20:49:10.863Z,43.63
2022-08-14T20:51:54.752Z,43.89
2022-08-14T20:54:34.062Z,43.43
2022-08-14T20:57:13.887Z,43.29
2022-08-14T20:59:43.943Z,43.60
2022-08-14T21:02:50.305Z,43.43
2022-08-14T21:05:21.861Z,43.42
2022-08-14T21:08:08.356Z,43.22
2022-08-14T21:10:48.260Z,43.40
2022-08-14T21:14:08.915Z,44.17
2022-08-14T21:16:05.214Z,43.60
2022-08-14T21:18:55.429Z,43.89
2022-08-14T21:21:41.743Z,43.60
2022-08-14T21:24:22.973Z,44.05
2022-08-14T21:27:12.970Z,43.28
2022-08-14T21:29:53.853Z,43.70
2022-08-14T21:32:50.078Z,44.28
2022-08-14T21:35:24.279Z,44.10
2022-08-14T21:37:52.719Z,44.49
2022-08-14T21:40:42.204Z,43.91
2022-08-14T21:43:18.189Z,44.60
2022-08-14T21:45:53.183Z,44.12
2022-08-14T21:48:26.344Z,44.98
2022-08-14T21:51:01.828Z,44.60
2022-08-14T21:53:58.991Z,44.78
2022-08-14T21:56:37.230Z,45.19
2022-08-14T21:59:08.917Z,45.86
2022-08-14T22:01:59.410Z,45.32
2022-08-14T22:04:33.637Z,45.79
2022-08-14T22:07:03.441Z,46.30
2022-08-14T22:09:36.295Z,45.41
2022-08-14T22:12:07.339Z,45.62
2022-08-14T22:14:43.626Z,46.44
2022-08-14T22:17:16.492Z,45.73
2022-08-14T22:19:54.437Z,46.31
2022-08-14T22:22:24.136Z,46.32
2022-08-14T22:25:00.325Z,46.99
2022-08-14T22:27:30.032Z,46.16
2022-08-14T22:30:01.251Z,46.65
2022-08-14T22:32:56.354Z,46.61
2022-08-14T22:35:16.370Z,46.41
2022-08-14T22:37:44.456Z,47.05
2022-08-14T22:40:48.504Z,47.37
2022-08-14T22:43:08.205Z,47.56
2022-08-14T22:45:37.915Z,47.23
2022-08-14T22:48:10.846Z,47.27
2022-08-14T22:50:48.919Z,46.83
2022-08-14T22:53:20.838Z,46.89
2022-08-14T22:55:51.984Z,46.97
2022-08-14T22:58:30.017Z,46.28
2022-08-14T23:01:00.283Z,46.08
2022-08-14T23:03:27.569Z,46.78
2022-08-14T23:05:55.792Z,46.31
2022-08-14T23:08:58.573Z,46.70
2022-08-14T23:11:10.444Z,46.61
2022-08-14T23:13:40.062Z,46.28
2022-08-14T23:16:10.908Z,46.55
2022-08-14T23:18:47.893Z,47.43
2022-08-14T23:21:22.098Z,47.29
2022-08-14T23:23:54.986Z,47.18
2022-08-14T23:26:48.484Z,47.10
2022-08-14T23:29:12.177Z,47.53
2022-08-14T23:31:39.829Z,47.12
2022-08-14T23:34:10.788Z,46.43
2022-08-14T23:36:54.638Z,46.04
2022-08-14T23:39:30.312Z,46.18
2022-08-14T23:42:02.185Z,46.89
2022-08-14T23:44:32.168Z,47.15
2022-08-14T23:47:05.454Z,47.18
2022-08-14T23:49:55.400Z,47.42
2022-08-14T23:52:55.589Z,46.70
2022-08-14T23:55:12.001Z,47.94
2022-08-14T23:57:43.520Z,47.61
